sensor_id;sensor_type;location;lat;lon;timestamp;pressure;altitude;pressure_sealevel;temperature;humidity
7662;BME280;30314;48.184;11.510;2023-03-01T00:01:22;96467.22;;;0.32;100.00
7662;BME280;30314;48.184;11.510;2023-03-01T00:03:49;96483.66;;;0.26;100.00
7662;BME280;30314;48.184;11.510;2023-03-01T00:06:16;96486.44;;;0.24;100.00
7662;BME280;30314;48.184;11.510;2023-03-01T00:08:43;96491.59;;;0.38;100.00
7662;BME280;30314;48.184;11.510;2023-03-01T00:11:19;96468.22;;;0.31;100.00
7662;BME280;30314;48.184;11.510;2023-03-01T00:13:47;96484.63;;;0.32;100.00
7662;BME280;30314;48.184;11.510;2023-03-01T00:16:17;96482.41;;;0.29;100.00
7662;BME280;30314;48.184;11.510;2023-03-01T00:18:44;96485.00;;;0.29;100.00
7662;BME280;30314;48.184;11.510;2023-03-01T00:21:11;96483.81;;;0.38;100.00
7662;BME280;30314;48.184;11.510;2023-03-01T00:23:38;96437.31;;;0.03;100.00
7662;BME280;30314;48.184;11.510;2023-03-01T00:26:07;96481.44;;;0.23;100.00
7662;BME280;30314;48.184;11.510;2023-03-01T00:28:35;96487.44;;;0.23;100.00
7662;BME280;30314;48.184;11.510;2023-03-01T00:31:22;96475.28;;;0.17;100.00
7662;BME280;30314;48.184;11.510;2023-03-01T00:33:52;96477.44;;;0.27;100.00
7662;BME280;30314;48.184;11.510;2023-03-01T00:36:25;96460.28;;;0.19;100.00
7662;BME280;30314;48.184;11.510;2023-03-01T00:38:52;96477.00;;;0.37;100.00
7662;BME280;30314;48.184;11.510;2023-03-01T00:41:19;96471.03;;;0.30;100.00
7662;BME280;30314;48.184;11.510;2023-03-01T00:43:46;96419.75;;;0.05;100.00
7662;BME280;30314;48.184;11.510;2023-03-01T00:46:15;96470.66;;;0.19;100.00
7662;BME280;30314;48.184;11.510;2023-03-01T00:48:42;96465.50;;;0.06;100.00
7662;BME280;30314;48.184;11.510;2023-03-01T00:51:11;96466.09;;;0.15;100.00
7662;BME280;30314;48.184;11.510;2023-03-01T00:53:38;96446.34;;;0.00;100.00
7662;BME280;30314;48.184;11.510;2023-03-01T00:56:07;96447.91;;;0.08;100.00
7662;BME280;30314;48.184;11.510;2023-03-01T00:58:34;96462.28;;;0.17;100.00
7662;BME280;30314;48.184;11.510;2023-03-01T01:01:07;96455.47;;;0.16;100.00
7662;BME280;30314;48.184;11.510;2023-03-01T01:03:55;96455.69;;;0.15;100.00
7662;BME280;30314;48.184;11.510;2023-03-01T01:06:28;96431.53;;;0.01;100.00
7662;BME280;30314;48.184;11.510;2023-03-01T01:08:56;96435.69;;;0.15;100.00
7662;BME280;30314;48.184;11.510;2023-03-01T01:11:24;96443.91;;;0.12;100.00
7662;BME280;30314;48.184;11.510;2023-03-01T01:13:51;96431.91;;;0.18;100.00
7662;BME280;30314;48.184;11.510;2023-03-01T01:16:20;96423.53;;;0.09;100.00
7662;BME280;30314;48.184;11.510;2023-03-01T01:18:48;96433.09;;;0.15;100.00
7662;BME280;30314;48.184;11.510;2023-03-01T01:21:17;96421.75;;;0.03;100.00
7662;BME280;30314;48.184;11.510;2023-03-01T01:23:45;96428.31;;;0.12;100.00
7662;BME280;30314;48.184;11.510;2023-03-01T01:26:19;96428.91;;;0.14;100.00
7662;BME280;30314;48.184;11.510;2023-03-01T01:28:48;96418.34;;;0.09;100.00
7662;BME280;30314;48.184;11.510;2023-03-01T01:31:15;96413.91;;;0.16;100.00
7662;BME280;30314;48.184;11.510;2023-03-01T01:33:42;96407.53;;;0.12;100.00
7662;BME280;30314;48.184;11.510;2023-03-01T01:36:09;96410.16;;;0.05;100.00
7662;BME280;30314;48.184;11.510;2023-03-01T01:38:37;96424.94;;;0.11;100.00
7662;BME280;30314;48.184;11.510;2023-03-01T01:41:05;96403.53;;;0.09;100.00
7662;BME280;30314;48.184;11.510;2023-03-01T01:43:40;96413.75;;;0.11;100.00
7662;BME280;30314;48.184;11.510;2023-03-01T01:46:24;96413.75;;;0.11;100.00
7662;BME280;30314;48.184;11.510;2023-03-01T01:49:04;96403.19;;;0.06;100.00
7662;BME280;30314;48.184;11.510;2023-03-01T01:51:36;96406.78;;;0.05;100.00
7662;BME280;30314;48.184;11.510;2023-03-01T01:54:23;96377.59;;;0.03;100.00
7662;BME280;30314;48.184;11.510;2023-03-01T01:56:59;96388.97;;;0.08;100.00
7662;BME280;30314;48.184;11.510;2023-03-01T01:59:28;96384.59;;;0.02;100.00
7662;BME280;30314;48.184;11.510;2023-03-01T02:01:59;96396.75;;;0.08;100.00
7662;BME280;30314;48.184;11.510;2023-03-01T02:04:28;96380.59;;;-0.01;100.00
7662;BME280;30314;48.184;11.510;2023-03-01T02:07:01;96394.56;;;0.05;100.00
7662;BME280;30314;48.184;11.510;2023-03-01T02:09:30;96397.38;;;0.10;100.00
7662;BME280;30314;48.184;11.510;2023-03-01T02:11:58;96381.38;;;0.07;100.00
7662;BME280;30314;48.184;11.510;2023-03-01T02:14:24;96352.09;;;-0.21;100.00
7662;BME280;30314;48.184;11.510;2023-03-01T02:16:51;96325.41;;;-0.35;100.00
7662;BME280;30314;48.184;11.510;2023-03-01T02:22:23;96390.00;;;0.01;100.00
7662;BME280;30314;48.184;11.510;2023-03-01T02:27:40;96385.78;;;-0.01;100.00
7662;BME280;30314;48.184;11.510;2023-03-01T02:30:10;96345.34;;;-0.28;100.00
7662;BME280;30314;48.184;11.510;2023-03-01T02:32:40;96377.00;;;0.01;100.00
7662;BME280;30314;48.184;11.510;2023-03-01T02:35:10;96358.84;;;-0.06;100.00
7662;BME280;30314;48.184;11.510;2023-03-01T02:37:39;96382.41;;;-0.01;100.00
7662;BME280;30314;48.184;11.510;2023-03-01T02:40:11;96369.22;;;-0.06;100.00
7662;BME280;30314;48.184;11.510;2023-03-01T02:42:47;96353.22;;;-0.03;100.00
7662;BME280;30314;48.184;11.510;2023-03-01T02:45:15;96335.94;;;-0.23;100.00
7662;BME280;30314;48.184;11.510;2023-03-01T02:47:42;96349.72;;;-0.16;100.00
7662;BME280;30314;48.184;11.510;2023-03-01T02:51:21;96354.50;;;-0.12;100.00
7662;BME280;30314;48.184;11.510;2023-03-01T02:53:35;96361.47;;;-0.13;100.00
7662;BME280;30314;48.184;11.510;2023-03-01T02:56:05;96353.28;;;-0.17;100.00
7662;BME280;30314;48.184;11.510;2023-03-01T02:58:43;96337.72;;;-0.23;100.00
7662;BME280;30314;48.184;11.510;2023-03-01T03:01:19;96365.28;;;-0.09;100.00
7662;BME280;30314;48.184;11.510;2023-03-01T03:03:46;96355.69;;;-0.15;100.00
7662;BME280;30314;48.184;11.510;2023-03-01T03:06:13;96359.88;;;-0.14;100.00
7662;BME280;30314;48.184;11.510;2023-03-01T03:08:40;96362.28;;;-0.12;100.00
7662;BME280;30314;48.184;11.510;2023-03-01T03:11:08;96362.50;;;-0.21;100.00
7662;BME280;30314;48.184;11.510;2023-03-01T03:13:34;96351.53;;;-0.30;100.00
7662;BME280;30314;48.184;11.510;2023-03-01T03:16:02;96372.63;;;-0.06;100.00
7662;BME280;30314;48.184;11.510;2023-03-01T03:18:28;96365.31;;;-0.22;100.00
7662;BME280;30314;48.184;11.510;2023-03-01T03:20:55;96347.75;;;-0.34;100.00
7662;BME280;30314;48.184;11.510;2023-03-01T03:23:22;96370.09;;;-0.19;100.00
7662;BME280;30314;48.184;11.510;2023-03-01T03:25:49;96368.28;;;-0.25;100.00
7662;BME280;30314;48.184;11.510;2023-03-01T03:28:16;96365.91;;;-0.27;100.00
7662;BME280;30314;48.184;11.510;2023-03-01T03:30:44;96370.88;;;-0.25;100.00
7662;BME280;30314;48.184;11.510;2023-03-01T03:33:11;96319.88;;;-0.59;100.00
7662;BME280;30314;48.184;11.510;2023-03-01T03:35:41;96332.59;;;-0.44;100.00
7662;BME280;30314;48.184;11.510;2023-03-01T03:38:10;96353.34;;;-0.37;100.00
7662;BME280;30314;48.184;11.510;2023-03-01T03:41:00;96359.91;;;-0.27;100.00
7662;BME280;30314;48.184;11.510;2023-03-01T03:43:30;96320.25;;;-0.55;100.00
7662;BME280;30314;48.184;11.510;2023-03-01T03:45:57;96358.91;;;-0.33;100.00
7662;BME280;30314;48.184;11.510;2023-03-01T03:48:24;96350.16;;;-0.39;100.00
7662;BME280;30314;48.184;11.510;2023-03-01T03:50:53;96343.38;;;-0.40;100.00
7662;BME280;30314;48.184;11.510;2023-03-01T03:53:22;96353.75;;;-0.40;100.00
7662;BME280;30314;48.184;11.510;2023-03-01T03:55:48;96338.19;;;-0.47;100.00
7662;BME280;30314;48.184;11.510;2023-03-01T03:58:16;96341.34;;;-0.38;100.00
7662;BME280;30314;48.184;11.510;2023-03-01T04:00:47;96343.34;;;-0.26;100.00
7662;BME280;30314;48.184;11.510;2023-03-01T04:03:16;96339.16;;;-0.34;100.00
7662;BME280;30314;48.184;11.510;2023-03-01T04:05:42;96338.19;;;-0.40;100.00
7662;BME280;30314;48.184;11.510;2023-03-01T04:08:09;96329.81;;;-0.42;100.00
7662;BME280;30314;48.184;11.510;2023-03-01T04:10:38;96339.78;;;-0.39;100.00
7662;BME280;30314;48.184;11.510;2023-03-01T04:13:06;96325.03;;;-0.45;100.00
7662;BME280;30314;48.184;11.510;2023-03-01T04:15:33;96332.97;;;-0.40;100.00
7662;BME280;30314;48.184;11.510;2023-03-01T04:18:00;96325.19;;;-0.40;100.00
7662;BME280;30314;48.184;11.510;2023-03-01T04:20:29;96336.16;;;-0.38;100.00
7662;BME280;30314;48.184;11.510;2023-03-01T04:23:07;96334.22;;;-0.42;100.00
7662;BME280;30314;48.184;11.510;2023-03-01T04:26:02;96336.63;;;-0.61;100.00
7662;BME280;30314;48.184;11.510;2023-03-01T04:28:37;96334.59;;;-0.52;100.00
7662;BME280;30314;48.184;11.510;2023-03-01T04:31:12;96338.19;;;-0.53;100.00
7662;BME280;30314;48.184;11.510;2023-03-01T04:33:41;96331.00;;;-0.51;100.00
7662;BME280;30314;48.184;11.510;2023-03-01T04:36:11;96329.66;;;-0.61;100.00
7662;BME280;30314;48.184;11.510;2023-03-01T04:38:41;96332.84;;;-0.72;100.00
7662;BME280;30314;48.184;11.510;2023-03-01T04:41:09;96337.03;;;-0.64;100.00
7662;BME280;30314;48.184;11.510;2023-03-01T04:43:37;96321.47;;;-0.64;100.00
7662;BME280;30314;48.184;11.510;2023-03-01T04:46:06;96326.06;;;-0.60;100.00
7662;BME280;30314;48.184;11.510;2023-03-01T04:48:37;96306.94;;;-0.86;100.00
7662;BME280;30314;48.184;11.510;2023-03-01T04:51:04;96325.47;;;-0.75;100.00
7662;BME280;30314;48.184;11.510;2023-03-01T04:53:32;96329.44;;;-0.59;100.00
7662;BME280;30314;48.184;11.510;2023-03-01T04:55:59;96296.75;;;-0.87;100.00
7662;BME280;30314;48.184;11.510;2023-03-01T04:58:27;96269.66;;;-1.11;100.00
7662;BME280;30314;48.184;11.510;2023-03-01T05:00:54;96314.91;;;-0.87;100.00
7662;BME280;30314;48.184;11.510;2023-03-01T05:03:21;96318.09;;;-0.92;100.00
7662;BME280;30314;48.184;11.510;2023-03-01T05:05:50;96327.28;;;-0.89;100.00
7662;BME280;30314;48.184;11.510;2023-03-01T05:08:17;96317.91;;;-0.97;100.00
7662;BME280;30314;48.184;11.510;2023-03-01T05:10:53;96300.38;;;-1.22;100.00
7662;BME280;30314;48.184;11.510;2023-03-01T05:13:20;96320.31;;;-1.02;100.00
7662;BME280;30314;48.184;11.510;2023-03-01T05:15:55;96325.69;;;-0.97;100.00
7662;BME280;30314;48.184;11.510;2023-03-01T05:18:23;96317.09;;;-1.11;100.00
7662;BME280;30314;48.184;11.510;2023-03-01T05:20:53;96311.53;;;-1.15;100.00
7662;BME280;30314;48.184;11.510;2023-03-01T05:23:22;96310.53;;;-1.13;100.00
7662;BME280;30314;48.184;11.510;2023-03-01T05:25:49;96302.75;;;-1.27;100.00
7662;BME280;30314;48.184;11.510;2023-03-01T05:28:20;96314.91;;;-1.14;100.00
7662;BME280;30314;48.184;11.510;2023-03-01T05:30:47;96317.91;;;-1.10;100.00
7662;BME280;30314;48.184;11.510;2023-03-01T05:33:13;96311.91;;;-1.11;100.00
7662;BME280;30314;48.184;11.510;2023-03-01T05:35:41;96299.59;;;-1.16;100.00
7662;BME280;30314;48.184;11.510;2023-03-01T05:38:09;96311.13;;;-1.05;100.00
7662;BME280;30314;48.184;11.510;2023-03-01T05:40:41;96313.50;;;-1.17;100.00
7662;BME280;30314;48.184;11.510;2023-03-01T05:43:08;96307.13;;;-1.14;100.00
7662;BME280;30314;48.184;11.510;2023-03-01T05:45:36;96288.59;;;-1.24;100.00
7662;BME280;30314;48.184;11.510;2023-03-01T05:48:05;96310.91;;;-1.10;100.00
7662;BME280;30314;48.184;11.510;2023-03-01T05:50:34;96295.59;;;-1.18;100.00
7662;BME280;30314;48.184;11.510;2023-03-01T05:53:04;96295.59;;;-1.11;100.00
7662;BME280;30314;48.184;11.510;2023-03-01T05:55:32;96301.94;;;-1.07;100.00
7662;BME280;30314;48.184;11.510;2023-03-01T05:58:03;96288.59;;;-1.31;100.00
7662;BME280;30314;48.184;11.510;2023-03-01T06:00:30;96300.53;;;-1.30;100.00
7662;BME280;30314;48.184;11.510;2023-03-01T06:02:57;96318.69;;;-1.23;100.00
7662;BME280;30314;48.184;11.510;2023-03-01T06:05:24;96312.72;;;-1.24;100.00
7662;BME280;30314;48.184;11.510;2023-03-01T06:07:52;96315.91;;;-1.29;100.00
7662;BME280;30314;48.184;11.510;2023-03-01T06:10:21;96317.50;;;-1.21;100.00
7662;BME280;30314;48.184;11.510;2023-03-01T06:12:47;96324.88;;;-1.18;100.00
7662;BME280;30314;48.184;11.510;2023-03-01T06:15:16;96320.09;;;-1.21;100.00
7662;BME280;30314;48.184;11.510;2023-03-01T06:17:45;96318.31;;;-1.20;100.00
7662;BME280;30314;48.184;11.510;2023-03-01T06:20:15;96326.47;;;-1.17;100.00
7662;BME280;30314;48.184;11.510;2023-03-01T06:22:44;96307.53;;;-1.24;100.00
7662;BME280;30314;48.184;11.510;2023-03-01T06:25:13;96318.09;;;-1.19;100.00
7662;BME280;30314;48.184;11.510;2023-03-01T06:27:41;96282.81;;;-1.40;100.00
7662;BME280;30314;48.184;11.510;2023-03-01T06:30:09;96294.59;;;-1.31;100.00
7662;BME280;30314;48.184;11.510;2023-03-01T06:32:37;96297.97;;;-1.23;100.00
7662;BME280;30314;48.184;11.510;2023-03-01T06:35:13;96328.28;;;-1.10;100.00
7662;BME280;30314;48.184;11.510;2023-03-01T06:37:40;96318.31;;;-1.27;100.00
7662;BME280;30314;48.184;11.510;2023-03-01T06:40:08;96274.63;;;-1.57;100.00
7662;BME280;30314;48.184;11.510;2023-03-01T06:42:39;96328.47;;;-1.25;100.00
7662;BME280;30314;48.184;11.510;2023-03-01T06:45:06;96329.47;;;-1.20;100.00
7662;BME280;30314;48.184;11.510;2023-03-01T06:47:33;96317.91;;;-1.31;100.00
7662;BME280;30314;48.184;11.510;2023-03-01T06:50:01;96328.69;;;-1.27;100.00
7662;BME280;30314;48.184;11.510;2023-03-01T06:52:27;96326.69;;;-1.25;100.00
7662;BME280;30314;48.184;11.510;2023-03-01T06:54:54;96301.94;;;-1.41;100.00
7662;BME280;30314;48.184;11.510;2023-03-01T06:57:20;96296.75;;;-1.41;100.00
7662;BME280;30314;48.184;11.510;2023-03-01T06:59:47;96302.75;;;-1.40;100.00
7662;BME280;30314;48.184;11.510;2023-03-01T07:02:14;96324.28;;;-1.26;100.00
7662;BME280;30314;48.184;11.510;2023-03-01T07:04:42;96317.50;;;-1.21;100.00
7662;BME280;30314;48.184;11.510;2023-03-01T07:07:08;96323.28;;;-1.25;100.00
7662;BME280;30314;48.184;11.510;2023-03-01T07:09:35;96315.31;;;-1.24;100.00
7662;BME280;30314;48.184;11.510;2023-03-01T07:12:02;96302.75;;;-1.34;100.00
7662;BME280;30314;48.184;11.510;2023-03-01T07:14:28;96325.88;;;-1.32;100.00
7662;BME280;30314;48.184;11.510;2023-03-01T07:16:55;96305.13;;;-1.32;100.00
7662;BME280;30314;48.184;11.510;2023-03-01T07:19:22;96275.63;;;-1.51;100.00
7662;BME280;30314;48.184;11.510;2023-03-01T07:21:48;96314.91;;;-1.21;100.00
7662;BME280;30314;48.184;11.510;2023-03-01T07:24:15;96306.34;;;-1.15;100.00
7662;BME280;30314;48.184;11.510;2023-03-01T07:26:41;96306.94;;;-1.12;100.00
7662;BME280;30314;48.184;11.510;2023-03-01T07:29:10;96302.75;;;-1.00;100.00
7662;BME280;30314;48.184;11.510;2023-03-01T07:31:36;96275.63;;;-1.18;100.00
7662;BME280;30314;48.184;11.510;2023-03-01T07:34:03;96295.59;;;-1.05;100.00
7662;BME280;30314;48.184;11.510;2023-03-01T07:36:30;96306.72;;;-1.04;100.00
7662;BME280;30314;48.184;11.510;2023-03-01T07:38:57;96296.34;;;-0.97;100.00
7662;BME280;30314;48.184;11.510;2023-03-01T07:41:24;96304.75;;;-0.89;100.00
7662;BME280;30314;48.184;11.510;2023-03-01T07:43:50;96283.38;;;-0.91;100.00
7662;BME280;30314;48.184;11.510;2023-03-01T07:46:17;96286.78;;;-0.97;100.00
7662;BME280;30314;48.184;11.510;2023-03-01T07:48:45;96256.09;;;-1.07;100.00
7662;BME280;30314;48.184;11.510;2023-03-01T07:51:12;96284.78;;;-0.81;100.00
7662;BME280;30314;48.184;11.510;2023-03-01T07:53:38;96299.53;;;-0.75;100.00
7662;BME280;30314;48.184;11.510;2023-03-01T07:56:12;96278.59;;;-0.80;100.00
7662;BME280;30314;48.184;11.510;2023-03-01T07:58:43;96293.31;;;-0.61;100.00
7662;BME280;30314;48.184;11.510;2023-03-01T08:01:12;96292.13;;;-0.65;100.00
7662;BME280;30314;48.184;11.510;2023-03-01T08:03:39;96293.09;;;-0.52;100.00
7662;BME280;30314;48.184;11.510;2023-03-01T08:06:08;96290.91;;;-0.55;100.00
7662;BME280;30314;48.184;11.510;2023-03-01T08:08:35;96287.56;;;-0.63;100.00
7662;BME280;30314;48.184;11.510;2023-03-01T08:11:03;96289.72;;;-0.60;100.00
7662;BME280;30314;48.184;11.510;2023-03-01T08:13:31;96291.13;;;-0.70;100.00
7662;BME280;30314;48.184;11.510;2023-03-01T08:16:12;96281.56;;;-0.63;100.00
7662;BME280;30314;48.184;11.510;2023-03-01T08:18:39;96273.56;;;-0.62;100.00
7662;BME280;30314;48.184;11.510;2023-03-01T08:21:07;96278.75;;;-0.62;100.00
7662;BME280;30314;48.184;11.510;2023-03-01T08:23:34;96279.78;;;-0.63;100.00
7662;BME280;30314;48.184;11.510;2023-03-01T08:26:10;96292.50;;;-0.61;100.00
7662;BME280;30314;48.184;11.510;2023-03-01T08:28:39;96283.94;;;-0.62;100.00
7662;BME280;30314;48.184;11.510;2023-03-01T08:33:52;96279.72;;;-0.49;100.00
7662;BME280;30314;48.184;11.510;2023-03-01T08:36:28;96282.66;;;-0.39;100.00
7662;BME280;30314;48.184;11.510;2023-03-01T08:38:55;96281.47;;;-0.36;100.00
7662;BME280;30314;48.184;11.510;2023-03-01T08:41:22;96253.00;;;-0.56;100.00
7662;BME280;30314;48.184;11.510;2023-03-01T08:43:49;96257.91;;;-0.35;100.00
7662;BME280;30314;48.184;11.510;2023-03-01T08:46:16;96275.03;;;-0.20;99.25
7662;BME280;30314;48.184;11.510;2023-03-01T08:48:42;96253.50;;;-0.34;98.74
7662;BME280;30314;48.184;11.510;2023-03-01T08:51:14;96265.88;;;-0.30;99.76
7662;BME280;30314;48.184;11.510;2023-03-01T08:53:44;96261.84;;;-0.25;100.00
7662;BME280;30314;48.184;11.510;2023-03-01T08:56:11;96267.47;;;-0.28;99.84
7662;BME280;30314;48.184;11.510;2023-03-01T08:58:38;96258.66;;;-0.21;100.00
7662;BME280;30314;48.184;11.510;2023-03-01T09:01:10;96241.09;;;-0.25;99.40
7662;BME280;30314;48.184;11.510;2023-03-01T09:03:37;96225.75;;;-0.27;99.22
7662;BME280;30314;48.184;11.510;2023-03-01T09:06:05;96253.78;;;-0.04;99.93
7662;BME280;30314;48.184;11.510;2023-03-01T09:08:51;96247.41;;;-0.08;98.25
7662;BME280;30314;48.184;11.510;2023-03-01T09:11:20;96245.19;;;-0.04;98.28
7662;BME280;30314;48.184;11.510;2023-03-01T09:13:47;96262.31;;;0.10;97.25
7662;BME280;30314;48.184;11.510;2023-03-01T09:16:18;96251.53;;;0.07;97.68
7662;BME280;30314;48.184;11.510;2023-03-01T09:18:49;96216.09;;;-0.20;98.47
7662;BME280;30314;48.184;11.510;2023-03-01T09:21:16;96264.88;;;0.17;97.10
7662;BME280;30314;48.184;11.510;2023-03-01T09:23:50;96265.03;;;0.22;97.70
7662;BME280;30314;48.184;11.510;2023-03-01T09:26:21;96265.59;;;0.24;99.33
7662;BME280;30314;48.184;11.510;2023-03-01T09:28:50;96266.81;;;0.22;100.00
7662;BME280;30314;48.184;11.510;2023-03-01T09:31:21;96251.19;;;0.29;97.87
7662;BME280;30314;48.184;11.510;2023-03-01T09:33:51;96257.78;;;0.31;97.83
7662;BME280;30314;48.184;11.510;2023-03-01T09:36:21;96240.63;;;0.23;97.89
7662;BME280;30314;48.184;11.510;2023-03-01T09:38:48;96253.59;;;0.30;100.00
7662;BME280;30314;48.184;11.510;2023-03-01T09:41:37;96257.88;;;0.43;99.26
7662;BME280;30314;48.184;11.510;2023-03-01T09:44:13;96248.13;;;0.38;98.60
7662;BME280;30314;48.184;11.510;2023-03-01T09:46:44;96241.59;;;0.29;99.35
7662;BME280;30314;48.184;11.510;2023-03-01T09:49:17;96250.13;;;0.36;100.00
7662;BME280;30314;48.184;11.510;2023-03-01T09:52:16;96244.16;;;0.36;100.00
7662;BME280;30314;48.184;11.510;2023-03-01T09:54:46;96237.84;;;0.50;100.00
7662;BME280;30314;48.184;11.510;2023-03-01T09:57:28;96246.19;;;0.59;100.00
7662;BME280;30314;48.184;11.510;2023-03-01T10:00:12;96247.00;;;0.60;99.54
7662;BME280;30314;48.184;11.510;2023-03-01T10:02:52;96231.72;;;0.70;99.87
7662;BME280;30314;48.184;11.510;2023-03-01T10:05:36;96246.59;;;0.81;98.69
7662;BME280;30314;48.184;11.510;2023-03-01T10:08:14;96246.69;;;0.68;99.83
7662;BME280;30314;48.184;11.510;2023-03-01T10:10:47;96222.56;;;0.86;97.39
7662;BME280;30314;48.184;11.510;2023-03-01T10:16:11;96208.47;;;0.75;97.10
7662;BME280;30314;48.184;11.510;2023-03-01T10:18:39;96223.81;;;1.02;96.85
7662;BME280;30314;48.184;11.510;2023-03-01T10:21:18;96210.22;;;1.00;94.32
7662;BME280;30314;48.184;11.510;2023-03-01T10:23:50;96213.00;;;1.24;96.96
7662;BME280;30314;48.184;11.510;2023-03-01T10:29:01;96222.44;;;1.37;89.15
7662;BME280;30314;48.184;11.510;2023-03-01T10:31:42;96227.00;;;1.42;91.38
7662;BME280;30314;48.184;11.510;2023-03-01T10:34:19;96223.19;;;1.44;91.48
7662;BME280;30314;48.184;11.510;2023-03-01T10:36:50;96208.22;;;1.39;90.72
7662;BME280;30314;48.184;11.510;2023-03-01T10:39:20;96219.69;;;1.50;90.66
7662;BME280;30314;48.184;11.510;2023-03-01T10:47:04;96205.97;;;1.43;89.94
7662;BME280;30314;48.184;11.510;2023-03-01T10:49:31;96209.25;;;1.69;89.65
7662;BME280;30314;48.184;11.510;2023-03-01T10:52:15;96196.94;;;1.76;88.05
7662;BME280;30314;48.184;11.510;2023-03-01T10:54:52;96199.66;;;1.81;88.54
7662;BME280;30314;48.184;11.510;2023-03-01T10:57:35;96171.03;;;1.81;86.55
7662;BME280;30314;48.184;11.510;2023-03-01T11:02:50;96174.31;;;2.31;87.01
7662;BME280;30314;48.184;11.510;2023-03-01T11:05:23;96171.16;;;2.29;88.33
7662;BME280;30314;48.184;11.510;2023-03-01T11:07:58;96148.47;;;2.18;88.14
7662;BME280;30314;48.184;11.510;2023-03-01T11:10:29;96159.38;;;2.50;88.09
7662;BME280;30314;48.184;11.510;2023-03-01T11:15:34;96143.03;;;2.67;85.34
7662;BME280;30314;48.184;11.510;2023-03-01T11:18:01;96135.22;;;2.79;81.37
7662;BME280;30314;48.184;11.510;2023-03-01T11:20:40;96129.78;;;2.80;83.59
7662;BME280;30314;48.184;11.510;2023-03-01T11:23:14;96125.53;;;3.03;81.63
7662;BME280;30314;48.184;11.510;2023-03-01T11:26:02;96133.59;;;3.14;81.52
7662;BME280;30314;48.184;11.510;2023-03-01T11:28:32;96127.69;;;3.18;80.60
7662;BME280;30314;48.184;11.510;2023-03-01T11:31:07;96113.94;;;3.11;81.26
7662;BME280;30314;48.184;11.510;2023-03-01T11:33:48;96120.06;;;3.17;82.04
7662;BME280;30314;48.184;11.510;2023-03-01T11:36:41;96114.09;;;3.33;82.85
7662;BME280;30314;48.184;11.510;2023-03-01T11:42:13;96104.97;;;3.48;78.64
7662;BME280;30314;48.184;11.510;2023-03-01T11:44:48;96093.75;;;3.18;80.67
7662;BME280;30314;48.184;11.510;2023-03-01T11:50:28;96088.38;;;3.25;79.40
7662;BME280;30314;48.184;11.510;2023-03-01T12:01:32;96092.66;;;3.31;81.51
7662;BME280;30314;48.184;11.510;2023-03-01T12:06:52;96081.00;;;3.22;81.88
7662;BME280;30314;48.184;11.510;2023-03-01T12:09:39;96087.44;;;3.31;81.48
7662;BME280;30314;48.184;11.510;2023-03-01T12:12:33;96079.75;;;3.24;80.03
7662;BME280;30314;48.184;11.510;2023-03-01T12:15:24;96077.47;;;3.28;82.55
7662;BME280;30314;48.184;11.510;2023-03-01T12:20:48;96058.22;;;3.17;81.46
7662;BME280;30314;48.184;11.510;2023-03-01T12:29:00;96058.41;;;3.28;81.26
7662;BME280;30314;48.184;11.510;2023-03-01T12:37:11;96050.81;;;3.26;82.85
7662;BME280;30314;48.184;11.510;2023-03-01T12:45:58;96038.09;;;3.47;81.56
7662;BME280;30314;48.184;11.510;2023-03-01T12:48:46;96042.00;;;3.44;81.28
7662;BME280;30314;48.184;11.510;2023-03-01T12:51:17;96031.59;;;3.32;82.05
7662;BME280;30314;48.184;11.510;2023-03-01T12:53:50;96027.47;;;3.19;82.56
7662;BME280;30314;48.184;11.510;2023-03-01T12:56:26;96039.91;;;3.29;85.61
7662;BME280;30314;48.184;11.510;2023-03-01T13:01:34;96029.38;;;3.24;84.19
7662;BME280;30314;48.184;11.510;2023-03-01T13:07:25;96034.09;;;3.56;83.46
7662;BME280;30314;48.184;11.510;2023-03-01T13:10:08;96031.16;;;3.52;83.04
7662;BME280;30314;48.184;11.510;2023-03-01T13:17:50;96019.66;;;3.54;82.98
7662;BME280;30314;48.184;11.510;2023-03-01T13:20:20;96040.03;;;3.69;84.19
7662;BME280;30314;48.184;11.510;2023-03-01T13:22:47;96039.41;;;3.96;81.91
7662;BME280;30314;48.184;11.510;2023-03-01T13:25:25;96019.84;;;3.64;82.39
7662;BME280;30314;48.184;11.510;2023-03-01T13:31:05;96039.47;;;3.66;84.12
7662;BME280;30314;48.184;11.510;2023-03-01T13:33:40;96033.72;;;3.64;84.64
7662;BME280;30314;48.184;11.510;2023-03-01T13:36:07;96020.66;;;3.64;84.99
7662;BME280;30314;48.184;11.510;2023-03-01T13:41:11;96019.53;;;3.94;83.83
7662;BME280;30314;48.184;11.510;2023-03-01T13:43:40;95993.25;;;3.84;82.84
7662;BME280;30314;48.184;11.510;2023-03-01T13:46:21;96004.34;;;3.91;84.70
7662;BME280;30314;48.184;11.510;2023-03-01T13:48:51;95989.69;;;3.90;83.17
7662;BME280;30314;48.184;11.510;2023-03-01T13:51:26;96009.78;;;4.07;82.83
7662;BME280;30314;48.184;11.510;2023-03-01T13:53:55;96025.41;;;4.02;83.38
7662;BME280;30314;48.184;11.510;2023-03-01T13:56:24;96020.56;;;4.11;82.42
7662;BME280;30314;48.184;11.510;2023-03-01T13:58:54;95987.13;;;3.96;82.14
7662;BME280;30314;48.184;11.510;2023-03-01T14:01:34;95988.50;;;3.98;81.21
7662;BME280;30314;48.184;11.510;2023-03-01T14:04:03;96007.78;;;4.14;82.64
7662;BME280;30314;48.184;11.510;2023-03-01T14:06:43;95994.41;;;4.11;83.32
7662;BME280;30314;48.184;11.510;2023-03-01T14:09:18;96004.81;;;4.28;81.73
7662;BME280;30314;48.184;11.510;2023-03-01T14:12:12;96001.44;;;4.27;82.40
7662;BME280;30314;48.184;11.510;2023-03-01T14:14:48;95983.31;;;4.03;83.62
7662;BME280;30314;48.184;11.510;2023-03-01T14:17:41;95994.84;;;4.25;84.09
7662;BME280;30314;48.184;11.510;2023-03-01T14:22:43;95968.72;;;4.25;83.99
7662;BME280;30314;48.184;11.510;2023-03-01T14:27:55;95974.03;;;4.30;83.82
7662;BME280;30314;48.184;11.510;2023-03-01T14:30:43;95977.19;;;4.32;82.22
7662;BME280;30314;48.184;11.510;2023-03-01T14:33:27;95980.56;;;4.55;81.70
7662;BME280;30314;48.184;11.510;2023-03-01T14:36:01;95974.78;;;4.53;83.03
7662;BME280;30314;48.184;11.510;2023-03-01T14:38:33;95952.78;;;4.48;81.31
7662;BME280;30314;48.184;11.510;2023-03-01T14:41:22;95951.69;;;4.44;82.13
7662;BME280;30314;48.184;11.510;2023-03-01T14:43:55;95920.91;;;4.29;83.28